Time;durP1;ratioP1;P1;durP2;ratioP2;P2;SDS_P1;SDS_P2;PMS_P1;PMS_P2;Temp;Humidity;BMP_temperature;BMP_pressure;BME280_temperature;BME280_humidity;BME280_pressure;Samples;Min_cycle;Max_cycle;Signal;HPM_P1;HPM_P2
2022/09/21 00:00:34;;;;;;;7.90;5.30;;;9.20;99.90;;;;;;5116816;28;20443;-60
2022/09/21 00:03:01;;;;;;;12.77;4.93;;;9.20;99.90;;;;;;5116691;28;20469;-59
2022/09/21 00:05:28;;;;;;;9.53;6.20;;;9.10;99.90;;;;;;5116874;28;20447;-59
2022/09/21 00:07:55;;;;;;;5.57;5.07;;;9.10;99.90;;;;;;5116526;28;20451;-59
2022/09/21 00:10:22;;;;;;;8.60;5.10;;;9.10;99.90;;;;;;5116256;28;20449;-59
2022/09/21 00:12:51;;;;;;;5.17;4.67;;;9.20;99.90;;;;;;5116403;28;20470;-59
2022/09/21 00:15:18;;;;;;;6.97;4.60;;;9.10;99.90;;;;;;5116245;28;20441;-60
2022/09/21 00:17:47;;;;;;;7.23;5.47;;;8.90;99.90;;;;;;5116079;28;20450;-59
2022/09/21 00:20:14;;;;;;;5.50;4.90;;;8.80;99.90;;;;;;5116251;28;20851;-60
2022/09/21 00:22:42;;;;;;;5.60;5.10;;;8.80;99.90;;;;;;5116314;28;20557;-59
2022/09/21 00:25:10;;;;;;;7.23;4.90;;;8.80;99.90;;;;;;5115975;28;20990;-59
2022/09/21 00:27:37;;;;;;;11.60;5.43;;;8.90;99.90;;;;;;5116086;28;20537;-59
2022/09/21 00:30:07;;;;;;;7.40;5.80;;;9.00;99.90;;;;;;5116208;28;20449;-59
2022/09/21 00:32:36;;;;;;;13.60;6.30;;;9.00;99.90;;;;;;5115817;28;20471;-60
2022/09/21 00:35:06;;;;;;;6.17;5.40;;;9.10;99.90;;;;;;5116270;28;20442;-60
2022/09/21 00:37:34;;;;;;;9.00;5.10;;;9.10;99.90;;;;;;5116164;28;20442;-59
2022/09/21 00:40:02;;;;;;;6.63;5.93;;;8.90;99.90;;;;;;5115646;28;21015;-60
2022/09/21 00:42:31;;;;;;;7.57;5.73;;;8.80;99.90;;;;;;5115840;28;20550;-59
2022/09/21 00:44:59;;;;;;;6.37;5.77;;;8.70;99.90;;;;;;5115811;28;20431;-59
2022/09/21 00:47:33;;;;;;;8.87;5.80;;;8.80;99.90;;;;;;5115406;28;20479;-59
2022/09/21 00:50:03;;;;;;;7.03;5.80;;;8.80;99.90;;;;;;5115573;28;20425;-59
2022/09/21 00:52:35;;;;;;;10.13;5.37;;;8.80;99.90;;;;;;5115793;28;20463;-59
2022/09/21 00:55:06;;;;;;;9.47;6.00;;;8.70;99.90;;;;;;5115713;28;20766;-59
2022/09/21 00:57:34;;;;;;;7.23;6.50;;;8.70;99.90;;;;;;5115433;28;20443;-59
2022/09/21 01:00:05;;;;;;;8.17;6.83;;;8.70;99.90;;;;;;5115552;28;20479;-59
2022/09/21 01:02:35;;;;;;;10.27;6.43;;;8.70;99.90;;;;;;5115715;28;20462;-59
2022/09/21 01:05:05;;;;;;;7.90;6.30;;;8.70;99.90;;;;;;5115360;28;20446;-59
2022/09/21 01:07:35;;;;;;;11.23;7.47;;;8.60;99.90;;;;;;5115213;28;20509;-59
2022/09/21 01:10:08;;;;;;;7.57;6.77;;;8.70;99.90;;;;;;5115493;28;20463;-59
2022/09/21 01:12:51;;;;;;;7.80;7.00;;;8.70;99.90;;;;;;5115211;28;20477;-59
2022/09/21 01:15:29;;;;;;;10.40;7.30;;;8.80;99.90;;;;;;5115518;28;20426;-59
2022/09/21 01:18:07;;;;;;;22.73;9.23;;;8.90;99.90;;;;;;5115162;28;20839;-60
2022/09/21 01:21:19;;;;;;;8.40;7.47;;;8.60;99.90;;;;;;5114948;28;20894;-60
2022/09/21 01:24:20;;;;;;;12.23;7.13;;;8.40;99.90;;;;;;5115200;28;20477;-59
2022/09/21 01:27:15;;;;;;;10.40;7.07;;;8.40;99.90;;;;;;5114855;28;20919;-59
2022/09/21 01:29:49;;;;;;;14.43;7.13;;;8.40;99.90;;;;;;5115122;28;20518;-59
2022/09/21 01:32:22;;;;;;;8.57;7.20;;;8.40;99.90;;;;;;5114973;28;20461;-59
2022/09/21 01:34:54;;;;;;;7.60;6.80;;;8.40;99.90;;;;;;5114989;28;20419;-59
2022/09/21 01:37:26;;;;;;;8.97;8.10;;;8.40;99.90;;;;;;5114729;28;20422;-59
2022/09/21 01:39:58;;;;;;;10.57;7.67;;;8.50;99.90;;;;;;5114686;28;20553;-60
2022/09/21 01:42:28;;;;;;;7.00;6.27;;;8.50;99.90;;;;;;5114420;28;20462;-59
2022/09/21 01:45:00;;;;;;;10.33;6.60;;;8.40;99.90;;;;;;5114788;28;20538;-59
2022/09/21 01:47:30;;;;;;;8.70;6.90;;;8.40;99.90;;;;;;5114434;28;20478;-59
2022/09/21 01:50:05;;;;;;;10.73;6.60;;;8.30;99.90;;;;;;5114921;27;20426;-60
2022/09/21 01:52:37;;;;;;;7.87;6.23;;;8.30;99.90;;;;;;5114615;28;20796;-59
2022/09/21 01:55:09;;;;;;;9.10;7.37;;;8.30;99.90;;;;;;5114372;28;20517;-60
2022/09/21 01:57:42;;;;;;;8.67;5.70;;;8.40;99.90;;;;;;5114577;28;20431;-59
2022/09/21 02:00:12;;;;;;;6.23;4.73;;;8.50;99.90;;;;;;5114269;28;20826;-59
2022/09/21 02:02:44;;;;;;;6.07;5.10;;;8.50;99.90;;;;;;5114139;28;20462;-59
2022/09/21 02:05:15;;;;;;;6.47;5.30;;;8.60;99.90;;;;;;5113671;28;20427;-59
2022/09/21 02:07:43;;;;;;;6.30;5.70;;;8.60;99.90;;;;;;5114071;28;20431;-59
2022/09/21 02:10:17;;;;;;;7.00;5.80;;;8.50;99.90;;;;;;5114238;28;20443;-60
2022/09/21 02:12:44;;;;;;;7.90;6.60;;;8.50;99.90;;;;;;5113929;28;20580;-60
2022/09/21 02:15:13;;;;;;;7.83;6.10;;;8.60;99.90;;;;;;5114216;28;20499;-60
2022/09/21 02:17:48;;;;;;;8.27;5.80;;;8.60;99.90;;;;;;5114355;28;20525;-59
2022/09/21 02:20:20;;;;;;;9.73;6.37;;;8.60;99.90;;;;;;5114306;28;20800;-59
2022/09/21 02:22:58;;;;;;;7.80;6.13;;;8.50;99.90;;;;;;5114082;28;20462;-59
2022/09/21 02:25:36;;;;;;;8.83;5.83;;;8.30;99.90;;;;;;5114202;28;20853;-59
2022/09/21 02:28:11;;;;;;;7.30;5.80;;;8.00;99.90;;;;;;5114118;28;20781;-60
2022/09/21 02:30:47;;;;;;;6.87;5.40;;;7.90;99.90;;;;;;5114042;28;20427;-60
2022/09/21 02:33:21;;;;;;;11.60;4.97;;;7.90;99.90;;;;;;5114212;28;20427;-59
2022/09/21 02:35:53;;;;;;;7.77;5.53;;;7.90;99.90;;;;;;5114125;28;20786;-59
2022/09/21 02:38:28;;;;;;;7.37;5.30;;;7.90;99.90;;;;;;5113598;28;20431;-59
2022/09/21 02:41:04;;;;;;;14.10;6.00;;;8.00;99.90;;;;;;5113664;28;20524;-59
2022/09/21 02:43:37;;;;;;;9.60;5.60;;;8.20;99.90;;;;;;5113808;28;20993;-59
2022/09/21 02:46:09;;;;;;;6.50;5.83;;;8.20;99.90;;;;;;5113583;28;20474;-59
2022/09/21 02:48:41;;;;;;;6.70;5.50;;;8.30;99.90;;;;;;5113784;28;20423;-59
2022/09/21 02:51:12;;;;;;;5.63;5.13;;;8.30;99.90;;;;;;5113473;28;20838;-59
2022/09/21 02:53:42;;;;;;;8.10;6.33;;;8.40;99.90;;;;;;5113782;28;20463;-59
2022/09/21 02:56:10;;;;;;;7.07;5.37;;;8.40;99.90;;;;;;5113878;28;20446;-59
2022/09/21 02:58:42;;;;;;;6.43;5.80;;;8.40;99.90;;;;;;5113388;28;20932;-59
2022/09/21 03:01:13;;;;;;;6.30;5.43;;;8.30;99.90;;;;;;5113404;28;21018;-59
2022/09/21 03:03:41;;;;;;;8.83;5.50;;;8.20;99.90;;;;;;5113739;28;20427;-59
2022/09/21 03:06:08;;;;;;;6.00;5.10;;;8.00;99.90;;;;;;5113725;28;20924;-60
2022/09/21 03:08:35;;;;;;;11.00;5.90;;;7.90;99.90;;;;;;5113656;28;20454;-59
2022/09/21 03:11:02;;;;;;;7.10;5.57;;;8.00;99.90;;;;;;5113294;28;20820;-59
2022/09/21 03:13:30;;;;;;;11.13;7.30;;;8.10;99.90;;;;;;5113652;28;20458;-59
2022/09/21 03:16:01;;;;;;;7.97;6.50;;;8.20;99.90;;;;;;5113230;28;20442;-60
2022/09/21 03:18:30;;;;;;;10.57;7.07;;;8.20;99.90;;;;;;5115406;28;20952;-60
2022/09/21 03:20:58;;;;;;;6.90;6.03;;;8.30;99.90;;;;;;5117551;28;20478;-59
2022/09/21 03:23:25;;;;;;;7.20;5.43;;;8.30;99.90;;;;;;5117848;28;20452;-60
2022/09/21 03:25:53;;;;;;;6.27;5.67;;;8.30;99.90;;;;;;5117249;28;20542;-59
2022/09/21 03:28:21;;;;;;;8.47;5.70;;;8.30;99.90;;;;;;5117412;28;20461;-59
2022/09/21 03:30:48;;;;;;;7.97;5.57;;;8.20;99.90;;;;;;5117444;28;20442;-59
2022/09/21 03:33:15;;;;;;;5.63;5.03;;;7.90;99.90;;;;;;5117040;28;20450;-60
2022/09/21 03:35:44;;;;;;;6.07;5.13;;;7.70;99.90;;;;;;5117306;28;20442;-59
2022/09/21 03:38:12;;;;;;;8.83;6.23;;;7.70;99.90;;;;;;5117080;28;20442;-59
2022/09/21 03:40:39;;;;;;;6.80;5.17;;;7.80;99.90;;;;;;5117110;28;20477;-59
2022/09/21 03:43:10;;;;;;;7.10;6.10;;;7.80;99.90;;;;;;5117237;28;20474;-59
2022/09/21 03:45:39;;;;;;;10.10;6.00;;;7.70;99.90;;;;;;5116735;28;20975;-59
2022/09/21 03:48:07;;;;;;;7.23;5.60;;;7.80;99.90;;;;;;5117047;28;20452;-59
2022/09/21 03:50:34;;;;;;;6.10;5.50;;;7.80;99.90;;;;;;5116717;28;20449;-59
2022/09/21 03:53:03;;;;;;;8.17;5.90;;;7.90;99.90;;;;;;5117019;28;20465;-59
2022/09/21 03:55:31;;;;;;;5.67;5.17;;;7.90;99.90;;;;;;5116694;28;20449;-59
2022/09/21 03:57:58;;;;;;;9.50;5.20;;;7.90;99.90;;;;;;5116934;28;20526;-60
2022/09/21 04:00:26;;;;;;;6.10;5.27;;;7.90;99.90;;;;;;5116524;28;21054;-59
2022/09/21 04:02:53;;;;;;;6.80;5.63;;;8.00;99.90;;;;;;5116838;28;20553;-59
2022/09/21 04:05:21;;;;;;;9.53;6.03;;;8.00;99.90;;;;;;5116415;28;20446;-59
2022/09/21 04:07:48;;;;;;;8.87;7.63;;;8.00;99.90;;;;;;5116404;28;20454;-59
2022/09/21 04:10:20;;;;;;;8.17;7.33;;;8.00;99.90;;;;;;5116839;28;20527;-59
2022/09/21 04:12:47;;;;;;;9.30;6.60;;;8.00;99.90;;;;;;5116525;28;20686;-59
2022/09/21 04:15:18;;;;;;;7.63;6.83;;;7.90;99.90;;;;;;5116575;28;20446;-60
2022/09/21 04:17:45;;;;;;;10.30;7.97;;;7.70;99.90;;;;;;5116683;28;20490;-59
2022/09/21 04:20:12;;;;;;;8.57;7.57;;;7.70;99.90;;;;;;5116346;28;20598;-59
2022/09/21 04:22:40;;;;;;;9.03;7.50;;;7.60;99.90;;;;;;5116010;28;20474;-59
2022/09/21 04:25:08;;;;;;;10.77;9.10;;;7.70;99.90;;;;;;5116132;28;20961;-59
2022/09/21 04:27:36;;;;;;;8.63;7.00;;;7.80;99.90;;;;;;5116247;28;20469;-59
2022/09/21 04:30:05;;;;;;;11.00;9.50;;;7.80;99.90;;;;;;5115806;28;20445;-59
2022/09/21 04:32:32;;;;;;;11.43;9.33;;;7.80;99.90;;;;;;5116134;28;20471;-59
2022/09/21 04:34:59;;;;;;;9.50;8.00;;;7.90;99.90;;;;;;5115907;28;20456;-60
2022/09/21 04:37:26;;;;;;;10.37;9.37;;;7.80;99.90;;;;;;5116004;28;20530;-59
2022/09/21 04:39:54;;;;;;;12.03;8.90;;;7.80;99.90;;;;;;5115881;28;20474;-59
2022/09/21 04:42:22;;;;;;;11.33;8.00;;;7.80;99.90;;;;;;5115848;28;20561;-59
2022/09/21 04:44:50;;;;;;;13.67;9.00;;;7.70;99.90;;;;;;5115623;28;20426;-59
2022/09/21 04:47:18;;;;;;;7.23;6.53;;;7.70;99.90;;;;;;5115412;28;20574;-59
2022/09/21 04:49:45;;;;;;;8.60;6.63;;;7.70;99.90;;;;;;5115647;27;20438;-60
2022/09/21 04:52:12;;;;;;;9.13;5.90;;;7.50;99.90;;;;;;5115684;28;20459;-59
2022/09/21 04:54:39;;;;;;;7.37;6.60;;;7.50;99.90;;;;;;5115440;28;20928;-59
2022/09/21 04:57:06;;;;;;;10.37;6.80;;;7.30;99.90;;;;;;5115540;28;20490;-59
2022/09/21 04:59:33;;;;;;;8.93;7.07;;;7.20;99.90;;;;;;5115225;28;20542;-59
2022/09/21 05:02:02;;;;;;;8.13;6.17;;;7.30;99.90;;;;;;5115126;28;20549;-59
2022/09/21 05:04:29;;;;;;;10.20;5.90;;;7.30;99.90;;;;;;5115623;28;20482;-59
2022/09/21 05:06:58;;;;;;;7.50;6.40;;;7.40;99.90;;;;;;5115076;28;20451;-59
2022/09/21 05:12:15;;;;;;;7.30;6.70;;;7.30;99.90;;;;;;5098986;28;20764;-59
2022/09/21 05:14:43;;;;;;;9.03;7.50;;;7.50;99.90;;;;;;5115285;28;20491;-59
2022/09/21 05:17:12;;;;;;;11.73;7.77;;;7.50;99.90;;;;;;5114924;28;20485;-59
2022/09/21 05:19:40;;;;;;;8.70;7.67;;;7.50;99.90;;;;;;5115179;28;20449;-59
2022/09/21 05:22:07;;;;;;;10.40;9.30;;;7.50;99.90;;;;;;5114674;28;20494;-59
2022/09/21 05:24:35;;;;;;;11.00;8.80;;;7.60;99.90;;;;;;5115020;28;20442;-59
2022/09/21 05:27:02;;;;;;;11.33;7.60;;;7.70;99.90;;;;;;5115036;28;20466;-59
2022/09/21 05:29:30;;;;;;;9.57;7.63;;;7.50;99.90;;;;;;5114699;28;20447;-60
2022/09/21 05:32:03;;;;;;;14.63;11.47;;;7.60;99.90;;;;;;5114422;28;20498;-60
2022/09/21 05:34:51;;;;;;;15.53;11.10;;;7.60;99.90;;;;;;5114426;28;20441;-60
2022/09/21 05:37:38;;;;;;;13.63;11.00;;;7.60;99.90;;;;;;5114576;28;20431;-60
2022/09/21 05:40:07;;;;;;;12.87;10.40;;;7.60;99.90;;;;;;5113791;28;20469;-59
2022/09/21 05:42:34;;;;;;;11.70;10.00;;;7.70;99.90;;;;;;5114343;28;20477;-59
2022/09/21 05:45:02;;;;;;;14.53;9.80;;;7.80;99.90;;;;;;5114220;28;20510;-59
2022/09/21 05:47:39;;;;;;;13.93;9.33;;;7.80;99.90;;;;;;5114283;28;20510;-60
2022/09/21 05:50:25;;;;;;;17.90;10.03;;;7.80;99.90;;;;;;5114846;28;20423;-60
2022/09/21 05:53:04;;;;;;;10.93;9.47;;;7.80;99.90;;;;;;5114282;28;20469;-60
2022/09/21 05:55:42;;;;;;;16.50;9.70;;;7.80;99.90;;;;;;5114190;28;20431;-60
2022/09/21 05:58:19;;;;;;;10.80;9.53;;;7.80;99.90;;;;;;5114086;28;20426;-61
2022/09/21 06:00:57;;;;;;;9.70;8.33;;;7.90;99.90;;;;;;5113968;28;20987;-61
2022/09/21 06:03:28;;;;;;;13.50;9.20;;;7.90;99.90;;;;;;5114244;28;20510;-60
2022/09/21 06:05:57;;;;;;;12.47;9.17;;;7.90;99.90;;;;;;5114181;28;20843;-59
2022/09/21 06:08:25;;;;;;;12.23;9.43;;;8.00;99.90;;;;;;5114190;28;20449;-59
2022/09/21 06:10:53;;;;;;;17.50;9.00;;;8.10;99.90;;;;;;5114097;27;20439;-59
2022/09/21 06:13:20;;;;;;;12.30;8.43;;;8.10;99.90;;;;;;5114088;28;20524;-59
2022/09/21 06:15:48;;;;;;;12.90;8.57;;;8.10;99.90;;;;;;5113878;28;20442;-59
2022/09/21 06:18:15;;;;;;;11.00;8.30;;;8.10;99.90;;;;;;5113917;28;20527;-60
2022/09/21 06:20:43;;;;;;;11.67;9.23;;;8.20;99.90;;;;;;5113672;28;20470;-59
2022/09/21 06:23:14;;;;;;;15.20;9.33;;;8.20;99.90;;;;;;5114014;28;20446;-59
2022/09/21 06:25:41;;;;;;;18.00;10.53;;;8.20;99.90;;;;;;5113534;28;20437;-59
2022/09/21 06:28:10;;;;;;;14.00;11.07;;;8.20;99.90;;;;;;5113547;28;20905;-59
2022/09/21 06:30:39;;;;;;;17.30;10.43;;;8.20;99.90;;;;;;5113825;28;20444;-59
2022/09/21 06:33:07;;;;;;;11.67;9.87;;;8.30;99.90;;;;;;5113282;28;20494;-58
2022/09/21 06:35:36;;;;;;;11.70;9.40;;;8.20;99.90;;;;;;5113727;28;20530;-59
2022/09/21 06:38:05;;;;;;;13.93;10.60;;;8.20;99.90;;;;;;5113338;28;20442;-60
2022/09/21 06:40:36;;;;;;;9.90;8.23;;;8.20;99.90;;;;;;5113589;28;20501;-61
2022/09/21 06:43:05;;;;;;;13.33;10.30;;;8.40;99.90;;;;;;5113076;28;20472;-60
2022/09/21 06:45:32;;;;;;;12.23;9.33;;;8.30;99.90;;;;;;5113197;28;20437;-60
2022/09/21 06:47:59;;;;;;;14.37;9.63;;;8.50;99.90;;;;;;5114160;28;20784;-60
2022/09/21 06:50:27;;;;;;;11.67;10.47;;;8.50;99.90;;;;;;5113457;28;21012;-60
2022/09/21 06:52:54;;;;;;;16.30;10.60;;;8.60;99.90;;;;;;5118110;28;20466;-60
2022/09/21 06:55:21;;;;;;;19.30;10.87;;;8.70;99.90;;;;;;5120443;28;20492;-60
2022/09/21 06:57:50;;;;;;;11.87;8.90;;;8.70;99.90;;;;;;5120265;28;20504;-59
2022/09/21 07:00:18;;;;;;;12.70;8.93;;;8.80;99.90;;;;;;5120003;28;20474;-59
2022/09/21 07:02:48;;;;;;;8.77;7.90;;;8.80;99.90;;;;;;5120039;27;20508;-60
2022/09/21 07:05:15;;;;;;;18.07;8.40;;;8.80;99.90;;;;;;5120297;28;20470;-60
2022/09/21 07:07:43;;;;;;;12.00;8.90;;;8.90;99.90;;;;;;5119984;28;20519;-59
2022/09/21 07:10:10;;;;;;;11.57;9.07;;;9.00;99.90;;;;;;5120212;28;20449;-60
2022/09/21 07:12:37;;;;;;;12.63;8.87;;;9.10;99.90;;;;;;5120343;28;20557;-59
2022/09/21 07:15:09;;;;;;;9.53;8.47;;;9.20;99.90;;;;;;5120071;28;20910;-59
2022/09/21 07:17:38;;;;;;;13.27;8.57;;;9.20;99.90;;;;;;5120263;27;20506;-59
2022/09/21 07:20:07;;;;;;;10.97;9.70;;;9.10;99.90;;;;;;5119837;28;20443;-59
2022/09/21 07:22:34;;;;;;;10.73;8.73;;;9.20;99.90;;;;;;5119828;27;20474;-59
2022/09/21 07:25:02;;;;;;;9.60;8.50;;;9.40;99.90;;;;;;5120012;28;20474;-59
2022/09/21 07:27:30;;;;;;;12.80;8.97;;;9.40;99.90;;;;;;5120352;28;20448;-60
2022/09/21 07:29:57;;;;;;;15.37;9.37;;;9.50;99.90;;;;;;5120143;28;20465;-59
2022/09/21 07:32:26;;;;;;;11.70;8.40;;;9.50;99.90;;;;;;5119534;28;20454;-60
2022/09/21 07:34:55;;;;;;;9.33;8.10;;;9.60;99.90;;;;;;5120232;28;20442;-58
2022/09/21 07:37:23;;;;;;;11.43;8.90;;;9.60;99.90;;;;;;5120169;27;20533;-61
2022/09/21 07:39:50;;;;;;;12.63;8.70;;;9.80;99.90;;;;;;5119729;28;20542;-60
2022/09/21 07:42:19;;;;;;;9.27;7.83;;;9.80;99.90;;;;;;5119605;28;20561;-60
2022/09/21 07:44:46;;;;;;;9.87;7.33;;;10.00;99.90;;;;;;5120131;28;20431;-60
2022/09/21 07:47:13;;;;;;;8.47;7.57;;;9.90;99.90;;;;;;5119536;28;20478;-61
2022/09/21 07:49:42;;;;;;;11.70;7.90;;;10.00;99.90;;;;;;5120005;28;20456;-59
2022/09/21 07:52:10;;;;;;;10.00;8.00;;;10.00;99.90;;;;;;5119956;28;20458;-61
2022/09/21 07:54:38;;;;;;;7.87;6.77;;;10.10;99.90;;;;;;5119824;28;20442;-60
2022/09/21 07:59:50;;;;;;;8.90;7.27;;;10.30;99.90;;;;;;5119712;28;20519;-59
2022/09/21 08:02:17;;;;;;;9.57;8.00;;;10.30;99.90;;;;;;5119705;28;20508;-60
2022/09/21 08:04:45;;;;;;;13.30;7.37;;;10.40;99.90;;;;;;5115792;27;20934;-59
2022/09/21 08:07:13;;;;;;;10.93;7.80;;;10.40;99.90;;;;;;5116467;28;20851;-59
2022/09/21 08:09:40;;;;;;;7.80;7.00;;;10.60;99.90;;;;;;5116573;28;20446;-60
2022/09/21 08:12:09;;;;;;;9.10;6.70;;;10.70;99.90;;;;;;5115957;28;20462;-60
2022/09/21 08:14:37;;;;;;;8.50;7.30;;;10.80;99.90;;;;;;5116420;28;20450;-64
2022/09/21 08:17:04;;;;;;;9.83;8.27;;;10.90;99.90;;;;;;5116630;28;20447;-59
2022/09/21 08:19:32;;;;;;;9.33;7.13;;;10.90;99.90;;;;;;5116065;28;20541;-60
2022/09/21 08:22:00;;;;;;;7.80;6.40;;;11.00;99.90;;;;;;5116116;28;21066;-59
2022/09/21 08:24:28;;;;;;;8.20;7.10;;;11.10;99.90;;;;;;5115837;28;20450;-59
2022/09/21 08:26:56;;;;;;;10.07;7.60;;;11.10;99.90;;;;;;5116308;28;20453;-59
2022/09/21 08:29:25;;;;;;;7.23;5.90;;;11.10;99.90;;;;;;5115778;28;20447;-59
2022/09/21 08:31:52;;;;;;;6.50;5.43;;;11.20;99.90;;;;;;5115738;28;20470;-59
2022/09/21 08:34:19;;;;;;;7.03;6.20;;;11.30;99.90;;;;;;5116155;28;20451;-61
2022/09/21 08:36:46;;;;;;;8.77;5.93;;;11.30;99.90;;;;;;5115815;28;20501;-59
2022/09/21 08:39:15;;;;;;;8.37;6.00;;;11.40;99.90;;;;;;5115472;28;20439;-59
2022/09/21 08:41:54;;;;;;;7.50;6.40;;;11.40;99.90;;;;;;5115766;28;20486;-59
2022/09/21 08:44:24;;;;;;;14.40;6.90;;;11.60;99.90;;;;;;5116065;28;20554;-60
2022/09/21 08:47:03;;;;;;;7.13;5.63;;;11.60;99.90;;;;;;5115528;28;20485;-60
2022/09/21 08:49:34;;;;;;;14.73;6.47;;;11.60;99.90;;;;;;5115448;28;20948;-59
2022/09/21 08:52:05;;;;;;;7.53;5.53;;;11.60;99.90;;;;;;5115633;28;20528;-59
2022/09/21 08:54:40;;;;;;;5.20;4.70;;;11.70;99.90;;;;;;5115994;28;20431;-60
2022/09/21 08:57:11;;;;;;;7.83;5.47;;;11.80;99.90;;;;;;5115997;28;20777;-59
2022/09/21 08:59:42;;;;;;;6.37;4.30;;;11.80;99.90;;;;;;5115465;28;20407;-58
2022/09/21 09:02:37;;;;;;;5.67;5.07;;;11.90;99.90;;;;;;5115473;28;20589;-59
2022/09/21 09:05:18;;;;;;;7.20;4.80;;;12.00;99.90;;;;;;5114164;28;20442;-59
2022/09/21 09:08:02;;;;;;;6.57;4.90;;;12.10;99.90;;;;;;5115322;28;20422;-59
2022/09/21 09:10:37;;;;;;;6.67;4.90;;;12.10;99.90;;;;;;5115192;28;20870;-60
2022/09/21 09:13:19;;;;;;;4.37;3.97;;;12.20;99.90;;;;;;5115221;28;20544;-59
2022/09/21 09:16:01;;;;;;;6.50;4.10;;;12.60;99.90;;;;;;5114147;28;20601;-60
2022/09/21 09:18:34;;;;;;;6.27;4.13;;;13.50;99.90;;;;;;5115102;28;20442;-60
2022/09/21 09:21:06;;;;;;;4.97;2.93;;;14.40;99.90;;;;;;5115330;28;20462;-60
2022/09/21 09:23:37;;;;;;;8.93;3.90;;;15.40;99.90;;;;;;5115087;28;20427;-60
2022/09/21 09:26:10;;;;;;;7.80;4.03;;;16.60;99.90;;;;;;5114686;28;20522;-59
2022/09/21 09:28:45;;;;;;;4.47;4.07;;;16.90;99.90;;;;;;5114969;28;20430;-61
2022/09/21 09:31:18;;;;;;;8.27;3.73;;;17.90;99.90;;;;;;5114844;28;20453;-60
2022/09/21 09:33:53;;;;;;;2.90;2.37;;;18.00;99.90;;;;;;5114759;28;20435;-61
2022/09/21 09:36:22;;;;;;;6.93;2.87;;;19.00;99.90;;;;;;5114527;28;20429;-61
2022/09/21 09:38:56;;;;;;;4.40;2.93;;;19.00;99.90;;;;;;5114801;28;20457;-62
2022/09/21 09:41:42;;;;;;;4.40;3.40;;;18.90;99.60;;;;;;5114695;28;20482;-61
2022/09/21 09:44:33;;;;;;;4.03;2.80;;;18.30;99.90;;;;;;5114739;28;20507;-62
2022/09/21 09:47:07;;;;;;;2.80;2.53;;;19.00;99.90;;;;;;5114018;28;20479;-61
2022/09/21 09:49:39;;;;;;;4.20;2.50;;;;;;;;;;5114716;28;20427;-61
2022/09/21 09:52:10;;;;;;;4.33;3.20;;;20.00;99.40;;;;;;5114319;28;20871;-62
2022/09/21 09:54:37;;;;;;;3.80;3.13;;;20.60;97.90;;;;;;5114612;28;20719;-61
2022/09/21 09:57:09;;;;;;;5.10;2.60;;;20.10;97.50;;;;;;5113825;28;20482;-61
2022/09/21 09:59:43;;;;;;;4.90;2.30;;;20.20;97.20;;;;;;5114309;28;20914;-62
2022/09/21 10:02:21;;;;;;;4.20;2.60;;;20.70;97.10;;;;;;5114222;28;20487;-61
2022/09/21 10:05:04;;;;;;;5.87;2.40;;;20.80;96.10;;;;;;5114006;28;20422;-62
2022/09/21 10:07:37;;;;;;;3.70;2.70;;;20.20;95.90;;;;;;5113958;28;20984;-62
2022/09/21 10:10:33;;;;;;;3.10;2.10;;;20.60;96.00;;;;;;5113929;28;20920;-62
2022/09/21 10:13:11;;;;;;;2.90;2.30;;;20.90;95.80;;;;;;5114207;28;20482;-62
2022/09/21 10:15:44;;;;;;;4.00;2.50;;;21.40;95.10;;;;;;5113913;28;20461;-62
2022/09/21 10:18:23;;;;;;;4.07;2.23;;;21.10;93.80;;;;;;5114040;28;20484;-62
2022/09/21 10:20:56;;;;;;;6.33;2.27;;;21.70;94.90;;;;;;5113880;28;20959;-62
2022/09/21 10:23:24;;;;;;;3.67;2.50;;;21.70;94.30;;;;;;5114061;28;20442;-62
2022/09/21 10:25:57;;;;;;;4.00;2.40;;;22.00;93.60;;;;;;5114033;28;20545;-61
2022/09/21 10:28:27;;;;;;;3.23;1.90;;;;;;;;;;5113579;28;20461;-63
2022/09/21 10:31:10;;;;;;;3.70;2.30;;;21.80;90.50;;;;;;5113689;28;20468;-62
2022/09/21 10:33:53;;;;;;;2.43;2.13;;;22.50;94.00;;;;;;5114284;28;20433;-62
2022/09/21 10:36:41;;;;;;;2.53;1.90;;;21.80;91.10;;;;;;5113833;28;20466;-60
2022/09/21 10:39:23;;;;;;;5.80;2.10;;;21.30;90.20;;;;;;5107902;28;20459;-62
2022/09/21 10:42:02;;;;;;;4.80;1.90;;;21.10;89.90;;;;;;5113926;28;20482;-61
2022/09/21 10:44:39;;;;;;;4.67;2.73;;;20.60;90.20;;;;;;5114219;28;20486;-62
2022/09/21 10:47:18;;;;;;;2.57;2.17;;;21.40;91.20;;;;;;5112631;28;20478;-61
2022/09/21 10:49:49;;;;;;;3.10;1.40;;;21.90;90.80;;;;;;5113488;28;20425;-61
2022/09/21 10:52:18;;;;;;;4.30;1.53;;;21.90;89.70;;;;;;5113609;28;20458;-61
2022/09/21 10:54:47;;;;;;;3.20;1.87;;;21.80;88.70;;;;;;5113752;28;20450;-61
2022/09/21 10:57:17;;;;;;;2.87;1.23;;;22.30;90.20;;;;;;5113736;28;20454;-61
2022/09/21 10:59:46;;;;;;;2.33;1.57;;;22.40;84.60;;;;;;5113635;28;20541;-61
2022/09/21 11:02:37;;;;;;;5.00;1.70;;;22.60;83.00;;;;;;5113216;28;20581;-60
2022/09/21 11:05:11;;;;;;;1.33;1.20;;;22.80;85.80;;;;;;5113641;28;20438;-61
2022/09/21 11:07:46;;;;;;;1.70;1.40;;;22.80;84.20;;;;;;5113550;28;20434;-60
2022/09/21 11:10:20;;;;;;;1.93;1.50;;;22.90;84.20;;;;;;5113577;28;20437;-61
2022/09/21 11:13:07;;;;;;;2.30;1.50;;;23.40;85.40;;;;;;5113149;28;20504;-63
2022/09/21 11:15:45;;;;;;;3.40;1.60;;;23.00;81.80;;;;;;5113660;28;20445;-62
2022/09/21 11:18:20;;;;;;;2.27;2.07;;;23.00;84.50;;;;;;5113399;28;20426;-62
2022/09/21 11:20:51;;;;;;;3.20;1.90;;;22.90;85.60;;;;;;5112969;28;20440;-62
2022/09/21 11:23:33;;;;;;;5.80;2.53;;;22.90;87.60;;;;;;5110684;28;20538;-61
2022/09/21 11:26:09;;;;;;;3.50;2.40;;;22.20;85.50;;;;;;5100918;28;20571;-61
2022/09/21 11:28:43;;;;;;;3.10;2.70;;;21.60;87.10;;;;;;5099025;28;20455;-61
2022/09/21 11:31:32;;;;;;;2.70;2.20;;;20.30;90.30;;;;;;5093089;28;20527;-61
2022/09/21 11:34:21;;;;;;;2.33;2.07;;;19.50;90.50;;;;;;5092542;28;20447;-61
2022/09/21 11:37:01;;;;;;;2.97;2.23;;;19.10;92.10;;;;;;5092723;28;20898;-61
2022/09/21 11:39:36;;;;;;;2.30;2.10;;;18.50;93.20;;;;;;5094775;28;20427;-60
2022/09/21 11:42:19;;;;;;;4.00;2.23;;;18.20;92.70;;;;;;5096494;28;20493;-61
2022/09/21 11:44:54;;;;;;;5.83;2.33;;;17.80;92.80;;;;;;5096412;28;20824;-61
2022/09/21 11:47:41;;;;;;;2.03;1.83;;;17.60;93.90;;;;;;5096091;28;20479;-61
2022/09/21 11:50:37;;;;;;;3.27;1.77;;;17.50;94.10;;;;;;5081851;28;20816;-61
2022/09/21 11:53:30;;;;;;;4.47;1.90;;;17.50;94.50;;;;;;5095918;28;20949;-61
2022/09/21 11:56:16;;;;;;;2.07;1.60;;;17.40;94.10;;;;;;5096768;28;20427;-61
2022/09/21 11:58:51;;;;;;;1.80;1.70;;;18.60;92.50;;;;;;5096228;28;20890;-61
2022/09/21 12:01:34;;;;;;;1.73;1.40;;;19.80;91.30;;;;;;5095837;28;21015;-61
2022/09/21 12:04:24;;;;;;;1.73;1.63;;;20.50;90.50;;;;;;5096023;28;20451;-61
2022/09/21 12:07:17;;;;;;;1.73;1.50;;;21.30;89.50;;;;;;5095865;28;20441;-62
2022/09/21 12:10:13;;;;;;;2.73;1.80;;;22.20;88.80;;;;;;5096003;28;20439;-61
2022/09/21 12:12:48;;;;;;;2.67;1.77;;;22.50;88.10;;;;;;5096061;28;20474;-61
2022/09/21 12:15:24;;;;;;;4.20;1.47;;;22.60;82.60;;;;;;5095715;28;20480;-61
2022/09/21 12:18:02;;;;;;;4.50;1.53;;;21.70;82.80;;;;;;5096085;28;20438;-62
2022/09/21 12:20:42;;;;;;;1.57;1.47;;;20.80;85.00;;;;;;5095877;28;20784;-62
2022/09/21 12:23:16;;;;;;;2.80;1.40;;;19.70;86.60;;;;;;5095304;28;20493;-61
2022/09/21 12:25:48;;;;;;;3.40;1.50;;;19.90;86.20;;;;;;5095579;28;20427;-61
2022/09/21 12:28:22;;;;;;;1.93;1.37;;;19.80;85.10;;;;;;5095609;28;20436;-62
2022/09/21 12:30:53;;;;;;;1.73;1.30;;;19.40;86.50;;;;;;5096105;28;20762;-62
2022/09/21 12:33:26;;;;;;;3.33;1.40;;;19.70;86.50;;;;;;5095663;28;20424;-62
2022/09/21 12:36:03;;;;;;;2.70;1.30;;;20.80;86.90;;;;;;5095377;28;20530;-62
2022/09/21 12:38:35;;;;;;;2.13;1.40;;;21.20;83.30;;;;;;5095429;28;20427;-63
2022/09/21 12:41:10;;;;;;;1.40;1.30;;;21.40;83.30;;;;;;5095269;28;20468;-62
2022/09/21 12:43:42;;;;;;;1.90;1.70;;;20.90;82.50;;;;;;5095378;28;20964;-62
2022/09/21 12:46:15;;;;;;;2.80;1.50;;;21.10;82.20;;;;;;5094991;28;20556;-62
2022/09/21 12:48:44;;;;;;;1.40;1.20;;;21.40;81.80;;;;;;5095479;28;20432;-63
2022/09/21 12:51:20;;;;;;;1.63;1.37;;;21.60;82.30;;;;;;5094839;28;20965;-62
2022/09/21 12:53:51;;;;;;;1.70;1.50;;;21.70;83.40;;;;;;5095482;28;20448;-62
2022/09/21 12:56:30;;;;;;;1.60;1.33;;;21.80;77.70;;;;;;5095152;28;20478;-62
2022/09/21 12:59:21;;;;;;;2.53;1.43;;;21.60;78.70;;;;;;5095387;28;20428;-61
2022/09/21 13:01:58;;;;;;;2.60;1.23;;;20.70;78.50;;;;;;5095027;28;20886;-60
2022/09/21 13:04:40;;;;;;;1.40;1.30;;;20.20;80.40;;;;;;5094974;28;20490;-61
2022/09/21 13:07:36;;;;;;;2.03;1.37;;;19.60;79.90;;;;;;5095148;28;20450;-61
2022/09/21 13:10:15;;;;;;;1.57;1.40;;;19.00;79.60;;;;;;5059873;28;20512;-61
2022/09/21 13:12:44;;;;;;;1.47;1.20;;;18.60;80.70;;;;;;5094507;28;20801;-62
2022/09/21 13:15:27;;;;;;;1.93;1.47;;;19.20;83.80;;;;;;5094784;28;20420;-61
2022/09/21 13:18:00;;;;;;;1.80;1.47;;;19.30;82.40;;;;;;5094631;28;20438;-61
2022/09/21 13:20:33;;;;;;;3.97;1.27;;;19.10;82.50;;;;;;5094644;28;20467;-61
2022/09/21 13:23:02;;;;;;;1.20;1.10;;;19.30;81.40;;;;;;5094379;28;20550;-61